sensor_id;sensor_type;location;lat;lon;timestamp;P1;durP1;ratioP1;P2;durP2;ratioP2
18159;SDS011;9205;52.032;4.314;2023-07-31T00:00:03;19.23;;;4.27;;
18159;SDS011;9205;52.032;4.314;2023-07-31T00:02:34;16.40;;;4.17;;
18159;SDS011;9205;52.032;4.314;2023-07-31T00:05:01;17.83;;;3.83;;
18159;SDS011;9205;52.032;4.314;2023-07-31T00:07:31;16.60;;;4.20;;
18159;SDS011;9205;52.032;4.314;2023-07-31T00:09:58;21.97;;;4.43;;
18159;SDS011;9205;52.032;4.314;2023-07-31T00:12:26;19.70;;;3.73;;
18159;SDS011;9205;52.032;4.314;2023-07-31T00:14:53;20.57;;;3.80;;
18159;SDS011;9205;52.032;4.314;2023-07-31T00:17:20;14.53;;;3.53;;
18159;SDS011;9205;52.032;4.314;2023-07-31T00:19:47;14.53;;;4.20;;
18159;SDS011;9205;52.032;4.314;2023-07-31T00:22:15;18.53;;;3.80;;
18159;SDS011;9205;52.032;4.314;2023-07-31T00:24:44;24.50;;;4.50;;
18159;SDS011;9205;52.032;4.314;2023-07-31T00:27:11;17.03;;;3.67;;
18159;SDS011;9205;52.032;4.314;2023-07-31T00:29:40;22.37;;;4.67;;
18159;SDS011;9205;52.032;4.314;2023-07-31T00:32:07;24.70;;;4.27;;
18159;SDS011;9205;52.032;4.314;2023-07-31T00:34:36;15.00;;;3.50;;
18159;SDS011;9205;52.032;4.314;2023-07-31T00:37:04;18.47;;;3.80;;
18159;SDS011;9205;52.032;4.314;2023-07-31T00:39:33;14.47;;;4.10;;
18159;SDS011;9205;52.032;4.314;2023-07-31T00:42:02;18.40;;;3.90;;
18159;SDS011;9205;52.032;4.314;2023-07-31T00:44:30;19.60;;;4.27;;
18159;SDS011;9205;52.032;4.314;2023-07-31T00:46:59;25.90;;;4.60;;
18159;SDS011;9205;52.032;4.314;2023-07-31T00:49:26;15.10;;;4.27;;
18159;SDS011;9205;52.032;4.314;2023-07-31T00:51:54;28.43;;;4.20;;
18159;SDS011;9205;52.032;4.314;2023-07-31T00:54:24;21.73;;;4.73;;
18159;SDS011;9205;52.032;4.314;2023-07-31T00:56:51;18.83;;;4.33;;
18159;SDS011;9205;52.032;4.314;2023-07-31T00:59:22;18.83;;;4.43;;
18159;SDS011;9205;52.032;4.314;2023-07-31T01:01:49;16.90;;;4.53;;
18159;SDS011;9205;52.032;4.314;2023-07-31T01:04:17;13.17;;;4.20;;
18159;SDS011;9205;52.032;4.314;2023-07-31T01:06:46;14.27;;;4.00;;
18159;SDS011;9205;52.032;4.314;2023-07-31T01:09:25;15.50;;;3.87;;
18159;SDS011;9205;52.032;4.314;2023-07-31T01:12:03;17.30;;;4.00;;
18159;SDS011;9205;52.032;4.314;2023-07-31T01:14:34;22.40;;;4.33;;
18159;SDS011;9205;52.032;4.314;2023-07-31T01:17:02;23.33;;;4.70;;
18159;SDS011;9205;52.032;4.314;2023-07-31T01:19:29;21.50;;;4.57;;
18159;SDS011;9205;52.032;4.314;2023-07-31T01:21:59;16.00;;;4.13;;
18159;SDS011;9205;52.032;4.314;2023-07-31T01:24:54;16.13;;;4.57;;
18159;SDS011;9205;52.032;4.314;2023-07-31T01:27:36;13.67;;;4.10;;
18159;SDS011;9205;52.032;4.314;2023-07-31T01:30:16;26.23;;;4.70;;
18159;SDS011;9205;52.032;4.314;2023-07-31T01:32:51;24.23;;;4.43;;
18159;SDS011;9205;52.032;4.314;2023-07-31T01:35:22;26.00;;;4.63;;
18159;SDS011;9205;52.032;4.314;2023-07-31T01:37:52;20.30;;;4.70;;
18159;SDS011;9205;52.032;4.314;2023-07-31T01:40:20;20.67;;;4.47;;
18159;SDS011;9205;52.032;4.314;2023-07-31T01:42:49;23.47;;;4.17;;
18159;SDS011;9205;52.032;4.314;2023-07-31T01:45:16;23.40;;;4.67;;
18159;SDS011;9205;52.032;4.314;2023-07-31T01:47:43;20.30;;;4.00;;
18159;SDS011;9205;52.032;4.314;2023-07-31T01:50:11;26.20;;;4.17;;
18159;SDS011;9205;52.032;4.314;2023-07-31T01:52:38;25.87;;;4.27;;
18159;SDS011;9205;52.032;4.314;2023-07-31T01:55:07;18.20;;;4.20;;
18159;SDS011;9205;52.032;4.314;2023-07-31T01:57:36;18.70;;;3.93;;
18159;SDS011;9205;52.032;4.314;2023-07-31T02:00:05;19.17;;;4.23;;
18159;SDS011;9205;52.032;4.314;2023-07-31T02:02:40;19.20;;;4.90;;
18159;SDS011;9205;52.032;4.314;2023-07-31T02:05:07;20.73;;;4.90;;
18159;SDS011;9205;52.032;4.314;2023-07-31T02:07:34;24.73;;;5.27;;
18159;SDS011;9205;52.032;4.314;2023-07-31T02:10:01;18.97;;;5.00;;
18159;SDS011;9205;52.032;4.314;2023-07-31T02:12:29;17.73;;;4.67;;
18159;SDS011;9205;52.032;4.314;2023-07-31T02:14:57;23.53;;;4.97;;
18159;SDS011;9205;52.032;4.314;2023-07-31T02:17:25;29.53;;;5.77;;
18159;SDS011;9205;52.032;4.314;2023-07-31T02:19:53;16.23;;;4.50;;
18159;SDS011;9205;52.032;4.314;2023-07-31T02:22:20;30.07;;;4.97;;
18159;SDS011;9205;52.032;4.314;2023-07-31T02:24:47;15.83;;;4.60;;
18159;SDS011;9205;52.032;4.314;2023-07-31T02:27:14;18.67;;;4.07;;
18159;SDS011;9205;52.032;4.314;2023-07-31T02:29:42;21.30;;;4.20;;
18159;SDS011;9205;52.032;4.314;2023-07-31T02:32:09;18.97;;;4.50;;
18159;SDS011;9205;52.032;4.314;2023-07-31T02:34:38;15.97;;;4.00;;
18159;SDS011;9205;52.032;4.314;2023-07-31T02:37:05;20.90;;;4.27;;
18159;SDS011;9205;52.032;4.314;2023-07-31T02:39:32;19.50;;;4.73;;
18159;SDS011;9205;52.032;4.314;2023-07-31T02:42:00;15.67;;;4.17;;
18159;SDS011;9205;52.032;4.314;2023-07-31T02:44:27;20.20;;;4.40;;
18159;SDS011;9205;52.032;4.314;2023-07-31T02:46:55;18.40;;;4.90;;
18159;SDS011;9205;52.032;4.314;2023-07-31T02:49:22;23.73;;;4.57;;
18159;SDS011;9205;52.032;4.314;2023-07-31T02:51:51;21.23;;;4.10;;
18159;SDS011;9205;52.032;4.314;2023-07-31T02:54:18;20.17;;;4.13;;
18159;SDS011;9205;52.032;4.314;2023-07-31T02:56:47;23.47;;;4.20;;
18159;SDS011;9205;52.032;4.314;2023-07-31T02:59:14;16.83;;;4.00;;
18159;SDS011;9205;52.032;4.314;2023-07-31T03:01:41;28.80;;;4.33;;
18159;SDS011;9205;52.032;4.314;2023-07-31T03:04:08;19.50;;;4.37;;
18159;SDS011;9205;52.032;4.314;2023-07-31T03:06:35;26.77;;;5.00;;
18159;SDS011;9205;52.032;4.314;2023-07-31T03:09:04;20.00;;;4.70;;
18159;SDS011;9205;52.032;4.314;2023-07-31T03:11:31;23.63;;;5.10;;
18159;SDS011;9205;52.032;4.314;2023-07-31T03:13:58;15.13;;;3.93;;
18159;SDS011;9205;52.032;4.314;2023-07-31T03:16:26;17.80;;;4.50;;
18159;SDS011;9205;52.032;4.314;2023-07-31T03:18:53;24.47;;;3.93;;
18159;SDS011;9205;52.032;4.314;2023-07-31T03:21:21;16.83;;;4.20;;
18159;SDS011;9205;52.032;4.314;2023-07-31T03:23:48;16.70;;;3.73;;
18159;SDS011;9205;52.032;4.314;2023-07-31T03:26:16;17.53;;;4.27;;
18159;SDS011;9205;52.032;4.314;2023-07-31T03:28:44;26.50;;;4.13;;
18159;SDS011;9205;52.032;4.314;2023-07-31T03:31:11;16.90;;;4.10;;
18159;SDS011;9205;52.032;4.314;2023-07-31T03:33:38;14.43;;;3.40;;
18159;SDS011;9205;52.032;4.314;2023-07-31T03:36:05;17.93;;;4.10;;
18159;SDS011;9205;52.032;4.314;2023-07-31T03:38:33;16.90;;;4.07;;
18159;SDS011;9205;52.032;4.314;2023-07-31T03:41:00;13.43;;;3.53;;
18159;SDS011;9205;52.032;4.314;2023-07-31T03:43:29;12.37;;;3.37;;
18159;SDS011;9205;52.032;4.314;2023-07-31T03:45:56;6.57;;;2.73;;
18159;SDS011;9205;52.032;4.314;2023-07-31T03:48:24;7.53;;;2.43;;
18159;SDS011;9205;52.032;4.314;2023-07-31T03:50:51;6.60;;;2.30;;
18159;SDS011;9205;52.032;4.314;2023-07-31T03:53:18;8.00;;;2.37;;
18159;SDS011;9205;52.032;4.314;2023-07-31T03:55:46;7.60;;;1.97;;
18159;SDS011;9205;52.032;4.314;2023-07-31T03:58:13;5.90;;;2.10;;
18159;SDS011;9205;52.032;4.314;2023-07-31T04:00:41;8.57;;;2.10;;
18159;SDS011;9205;52.032;4.314;2023-07-31T04:03:09;8.83;;;2.07;;
18159;SDS011;9205;52.032;4.314;2023-07-31T04:05:37;4.90;;;1.97;;
18159;SDS011;9205;52.032;4.314;2023-07-31T04:08:06;6.50;;;1.93;;
18159;SDS011;9205;52.032;4.314;2023-07-31T04:10:33;5.10;;;2.10;;
18159;SDS011;9205;52.032;4.314;2023-07-31T04:13:00;5.30;;;1.70;;
18159;SDS011;9205;52.032;4.314;2023-07-31T04:15:27;2.97;;;1.40;;
18159;SDS011;9205;52.032;4.314;2023-07-31T04:17:56;2.60;;;1.30;;
18159;SDS011;9205;52.032;4.314;2023-07-31T04:20:23;7.73;;;1.60;;
18159;SDS011;9205;52.032;4.314;2023-07-31T04:22:50;4.37;;;1.23;;
18159;SDS011;9205;52.032;4.314;2023-07-31T04:25:18;3.90;;;1.30;;
18159;SDS011;9205;52.032;4.314;2023-07-31T04:27:45;2.80;;;1.07;;
18159;SDS011;9205;52.032;4.314;2023-07-31T04:30:12;2.57;;;1.27;;
18159;SDS011;9205;52.032;4.314;2023-07-31T04:32:40;6.57;;;1.27;;
18159;SDS011;9205;52.032;4.314;2023-07-31T04:35:09;5.37;;;1.33;;
18159;SDS011;9205;52.032;4.314;2023-07-31T04:37:36;1.30;;;0.90;;
18159;SDS011;9205;52.032;4.314;2023-07-31T04:40:04;2.10;;;1.10;;
18159;SDS011;9205;52.032;4.314;2023-07-31T04:42:33;2.97;;;1.17;;
18159;SDS011;9205;52.032;4.314;2023-07-31T04:45:00;1.83;;;0.93;;
18159;SDS011;9205;52.032;4.314;2023-07-31T04:47:28;3.20;;;1.20;;
18159;SDS011;9205;52.032;4.314;2023-07-31T04:49:55;1.70;;;0.97;;
18159;SDS011;9205;52.032;4.314;2023-07-31T04:52:23;1.87;;;1.07;;
18159;SDS011;9205;52.032;4.314;2023-07-31T04:54:51;2.53;;;1.47;;
18159;SDS011;9205;52.032;4.314;2023-07-31T04:57:18;4.40;;;1.43;;
18159;SDS011;9205;52.032;4.314;2023-07-31T04:59:45;3.53;;;1.60;;
18159;SDS011;9205;52.032;4.314;2023-07-31T05:02:12;3.83;;;1.57;;
18159;SDS011;9205;52.032;4.314;2023-07-31T05:04:39;6.13;;;1.70;;
18159;SDS011;9205;52.032;4.314;2023-07-31T05:07:07;4.03;;;1.73;;
18159;SDS011;9205;52.032;4.314;2023-07-31T05:09:35;3.17;;;1.43;;
18159;SDS011;9205;52.032;4.314;2023-07-31T05:12:04;1.80;;;1.40;;
18159;SDS011;9205;52.032;4.314;2023-07-31T05:14:32;2.33;;;1.37;;
18159;SDS011;9205;52.032;4.314;2023-07-31T05:17:00;3.53;;;1.70;;
18159;SDS011;9205;52.032;4.314;2023-07-31T05:19:27;3.03;;;1.53;;
18159;SDS011;9205;52.032;4.314;2023-07-31T05:21:54;3.47;;;1.60;;
18159;SDS011;9205;52.032;4.314;2023-07-31T05:24:21;3.67;;;1.57;;
18159;SDS011;9205;52.032;4.314;2023-07-31T05:26:50;3.47;;;1.33;;
18159;SDS011;9205;52.032;4.314;2023-07-31T05:29:17;3.17;;;1.50;;
18159;SDS011;9205;52.032;4.314;2023-07-31T05:31:44;2.70;;;1.40;;
18159;SDS011;9205;52.032;4.314;2023-07-31T05:34:11;3.33;;;1.30;;
18159;SDS011;9205;52.032;4.314;2023-07-31T05:36:39;2.83;;;1.20;;
18159;SDS011;9205;52.032;4.314;2023-07-31T05:39:06;1.33;;;1.20;;
18159;SDS011;9205;52.032;4.314;2023-07-31T05:41:34;2.87;;;1.20;;
18159;SDS011;9205;52.032;4.314;2023-07-31T05:44:04;1.67;;;1.00;;
18159;SDS011;9205;52.032;4.314;2023-07-31T05:48:58;1.40;;;1.20;;
18159;SDS011;9205;52.032;4.314;2023-07-31T05:51:26;2.37;;;1.30;;
18159;SDS011;9205;52.032;4.314;2023-07-31T05:53:53;2.83;;;1.20;;
18159;SDS011;9205;52.032;4.314;2023-07-31T05:56:20;2.43;;;1.20;;
18159;SDS011;9205;52.032;4.314;2023-07-31T05:58:48;2.47;;;1.10;;
18159;SDS011;9205;52.032;4.314;2023-07-31T06:01:17;2.83;;;1.10;;
18159;SDS011;9205;52.032;4.314;2023-07-31T06:03:46;1.40;;;1.10;;
18159;SDS011;9205;52.032;4.314;2023-07-31T06:06:13;1.77;;;1.23;;
18159;SDS011;9205;52.032;4.314;2023-07-31T06:08:40;4.00;;;1.53;;
18159;SDS011;9205;52.032;4.314;2023-07-31T06:11:08;6.17;;;1.40;;
18159;SDS011;9205;52.032;4.314;2023-07-31T06:13:35;5.17;;;1.37;;
18159;SDS011;9205;52.032;4.314;2023-07-31T06:16:02;2.50;;;1.30;;
18159;SDS011;9205;52.032;4.314;2023-07-31T06:18:32;5.73;;;1.63;;
18159;SDS011;9205;52.032;4.314;2023-07-31T06:21:00;6.00;;;1.30;;
18159;SDS011;9205;52.032;4.314;2023-07-31T06:23:27;6.07;;;1.63;;
18159;SDS011;9205;52.032;4.314;2023-07-31T06:25:55;5.17;;;1.70;;
18159;SDS011;9205;52.032;4.314;2023-07-31T06:28:23;5.40;;;1.47;;
18159;SDS011;9205;52.032;4.314;2023-07-31T06:30:55;6.43;;;1.90;;
18159;SDS011;9205;52.032;4.314;2023-07-31T06:33:22;8.07;;;1.60;;
18159;SDS011;9205;52.032;4.314;2023-07-31T06:35:51;4.77;;;1.60;;
18159;SDS011;9205;52.032;4.314;2023-07-31T06:38:22;7.97;;;1.77;;
18159;SDS011;9205;52.032;4.314;2023-07-31T06:40:52;4.33;;;1.93;;
18159;SDS011;9205;52.032;4.314;2023-07-31T06:43:19;5.47;;;1.90;;
18159;SDS011;9205;52.032;4.314;2023-07-31T06:45:46;10.03;;;2.03;;
18159;SDS011;9205;52.032;4.314;2023-07-31T06:48:16;6.10;;;2.10;;
18159;SDS011;9205;52.032;4.314;2023-07-31T06:50:43;8.10;;;1.90;;
18159;SDS011;9205;52.032;4.314;2023-07-31T06:53:12;4.50;;;1.87;;
18159;SDS011;9205;52.032;4.314;2023-07-31T06:55:39;8.03;;;1.97;;
18159;SDS011;9205;52.032;4.314;2023-07-31T06:58:06;7.93;;;1.97;;
18159;SDS011;9205;52.032;4.314;2023-07-31T07:00:33;7.73;;;2.50;;
18159;SDS011;9205;52.032;4.314;2023-07-31T07:03:03;5.97;;;2.10;;
18159;SDS011;9205;52.032;4.314;2023-07-31T07:05:30;8.80;;;2.33;;
18159;SDS011;9205;52.032;4.314;2023-07-31T07:07:58;7.07;;;2.03;;
18159;SDS011;9205;52.032;4.314;2023-07-31T07:10:26;5.60;;;1.63;;
18159;SDS011;9205;52.032;4.314;2023-07-31T07:12:54;8.97;;;2.20;;
18159;SDS011;9205;52.032;4.314;2023-07-31T07:15:21;11.13;;;2.13;;
18159;SDS011;9205;52.032;4.314;2023-07-31T07:17:48;10.87;;;2.30;;
18159;SDS011;9205;52.032;4.314;2023-07-31T07:20:16;6.20;;;1.97;;
18159;SDS011;9205;52.032;4.314;2023-07-31T07:22:45;4.60;;;1.90;;
18159;SDS011;9205;52.032;4.314;2023-07-31T07:25:12;4.53;;;1.67;;
18159;SDS011;9205;52.032;4.314;2023-07-31T07:27:41;4.97;;;1.47;;
18159;SDS011;9205;52.032;4.314;2023-07-31T07:30:08;4.73;;;1.40;;
18159;SDS011;9205;52.032;4.314;2023-07-31T07:32:36;5.87;;;1.60;;
18159;SDS011;9205;52.032;4.314;2023-07-31T07:35:04;6.30;;;1.60;;
18159;SDS011;9205;52.032;4.314;2023-07-31T07:37:32;5.17;;;1.80;;
18159;SDS011;9205;52.032;4.314;2023-07-31T07:40:00;14.60;;;2.00;;
18159;SDS011;9205;52.032;4.314;2023-07-31T07:42:27;6.00;;;2.37;;
18159;SDS011;9205;52.032;4.314;2023-07-31T07:44:56;15.80;;;2.20;;
18159;SDS011;9205;52.032;4.314;2023-07-31T07:47:23;10.60;;;2.30;;
18159;SDS011;9205;52.032;4.314;2023-07-31T07:49:50;13.03;;;2.20;;
18159;SDS011;9205;52.032;4.314;2023-07-31T07:52:17;8.13;;;2.03;;
18159;SDS011;9205;52.032;4.314;2023-07-31T07:54:44;12.60;;;2.23;;
18159;SDS011;9205;52.032;4.314;2023-07-31T07:57:12;4.43;;;1.60;;
18159;SDS011;9205;52.032;4.314;2023-07-31T07:59:40;10.50;;;2.00;;
18159;SDS011;9205;52.032;4.314;2023-07-31T08:02:09;5.80;;;1.97;;
18159;SDS011;9205;52.032;4.314;2023-07-31T08:04:36;6.83;;;2.40;;
18159;SDS011;9205;52.032;4.314;2023-07-31T08:07:03;14.00;;;2.13;;
18159;SDS011;9205;52.032;4.314;2023-07-31T08:09:31;10.97;;;1.93;;
18159;SDS011;9205;52.032;4.314;2023-07-31T08:11:58;13.60;;;2.10;;
18159;SDS011;9205;52.032;4.314;2023-07-31T08:14:28;8.70;;;2.10;;
18159;SDS011;9205;52.032;4.314;2023-07-31T08:16:56;8.37;;;1.87;;
18159;SDS011;9205;52.032;4.314;2023-07-31T08:19:24;14.03;;;2.27;;
18159;SDS011;9205;52.032;4.314;2023-07-31T08:21:52;13.03;;;2.13;;
18159;SDS011;9205;52.032;4.314;2023-07-31T08:24:19;12.77;;;2.07;;
18159;SDS011;9205;52.032;4.314;2023-07-31T08:26:46;5.50;;;1.83;;
18159;SDS011;9205;52.032;4.314;2023-07-31T08:29:14;14.93;;;2.10;;
18159;SDS011;9205;52.032;4.314;2023-07-31T08:31:41;14.23;;;1.83;;
18159;SDS011;9205;52.032;4.314;2023-07-31T08:34:08;10.70;;;2.10;;
18159;SDS011;9205;52.032;4.314;2023-07-31T08:36:37;10.50;;;2.13;;
18159;SDS011;9205;52.032;4.314;2023-07-31T08:39:04;7.80;;;1.80;;
18159;SDS011;9205;52.032;4.314;2023-07-31T08:41:31;6.17;;;1.70;;
18159;SDS011;9205;52.032;4.314;2023-07-31T08:44:04;18.00;;;2.10;;
18159;SDS011;9205;52.032;4.314;2023-07-31T08:46:35;11.77;;;1.90;;
18159;SDS011;9205;52.032;4.314;2023-07-31T08:49:04;10.73;;;1.60;;
18159;SDS011;9205;52.032;4.314;2023-07-31T08:51:33;14.93;;;2.17;;
18159;SDS011;9205;52.032;4.314;2023-07-31T08:54:02;9.63;;;1.90;;
18159;SDS011;9205;52.032;4.314;2023-07-31T08:56:30;8.90;;;1.80;;
18159;SDS011;9205;52.032;4.314;2023-07-31T08:58:59;13.17;;;2.50;;
18159;SDS011;9205;52.032;4.314;2023-07-31T09:01:29;7.70;;;1.87;;
18159;SDS011;9205;52.032;4.314;2023-07-31T09:04:02;11.60;;;2.33;;
18159;SDS011;9205;52.032;4.314;2023-07-31T09:06:31;8.97;;;1.67;;
18159;SDS011;9205;52.032;4.314;2023-07-31T09:09:00;10.23;;;2.47;;
18159;SDS011;9205;52.032;4.314;2023-07-31T09:11:29;8.27;;;2.10;;
18159;SDS011;9205;52.032;4.314;2023-07-31T09:13:56;7.70;;;2.13;;
18159;SDS011;9205;52.032;4.314;2023-07-31T09:16:27;9.33;;;1.63;;
18159;SDS011;9205;52.032;4.314;2023-07-31T09:18:57;7.10;;;1.73;;
18159;SDS011;9205;52.032;4.314;2023-07-31T09:21:27;8.20;;;1.70;;
18159;SDS011;9205;52.032;4.314;2023-07-31T09:23:54;9.43;;;1.80;;
18159;SDS011;9205;52.032;4.314;2023-07-31T09:26:29;10.40;;;2.37;;
18159;SDS011;9205;52.032;4.314;2023-07-31T09:28:58;11.23;;;2.60;;
18159;SDS011;9205;52.032;4.314;2023-07-31T09:31:40;9.60;;;2.20;;
18159;SDS011;9205;52.032;4.314;2023-07-31T09:34:10;8.60;;;2.00;;
18159;SDS011;9205;52.032;4.314;2023-07-31T09:36:42;11.07;;;2.30;;
18159;SDS011;9205;52.032;4.314;2023-07-31T09:39:12;13.03;;;2.40;;
18159;SDS011;9205;52.032;4.314;2023-07-31T09:41:43;11.60;;;2.33;;
18159;SDS011;9205;52.032;4.314;2023-07-31T09:44:12;9.80;;;2.13;;
18159;SDS011;9205;52.032;4.314;2023-07-31T09:46:39;11.17;;;2.50;;
18159;SDS011;9205;52.032;4.314;2023-07-31T09:49:07;11.03;;;2.20;;
18159;SDS011;9205;52.032;4.314;2023-07-31T09:51:35;8.33;;;2.30;;
18159;SDS011;9205;52.032;4.314;2023-07-31T09:54:10;13.73;;;2.07;;
18159;SDS011;9205;52.032;4.314;2023-07-31T09:56:41;6.93;;;1.67;;
18159;SDS011;9205;52.032;4.314;2023-07-31T09:59:12;11.00;;;1.97;;
18159;SDS011;9205;52.032;4.314;2023-07-31T10:01:41;12.70;;;1.90;;
18159;SDS011;9205;52.032;4.314;2023-07-31T10:04:11;10.17;;;1.93;;
18159;SDS011;9205;52.032;4.314;2023-07-31T10:06:40;11.97;;;2.00;;
18159;SDS011;9205;52.032;4.314;2023-07-31T10:09:11;11.73;;;2.43;;
18159;SDS011;9205;52.032;4.314;2023-07-31T10:11:45;7.40;;;2.00;;
18159;SDS011;9205;52.032;4.314;2023-07-31T10:14:18;17.37;;;2.70;;
18159;SDS011;9205;52.032;4.314;2023-07-31T10:16:47;8.93;;;2.37;;
18159;SDS011;9205;52.032;4.314;2023-07-31T10:19:16;4.70;;;2.20;;
18159;SDS011;9205;52.032;4.314;2023-07-31T10:21:45;12.87;;;2.17;;
18159;SDS011;9205;52.032;4.314;2023-07-31T10:24:14;10.13;;;2.33;;
18159;SDS011;9205;52.032;4.314;2023-07-31T10:26:44;11.97;;;2.57;;
18159;SDS011;9205;52.032;4.314;2023-07-31T10:29:14;8.20;;;2.30;;
18159;SDS011;9205;52.032;4.314;2023-07-31T10:31:44;8.40;;;2.07;;
18159;SDS011;9205;52.032;4.314;2023-07-31T10:34:13;12.60;;;2.27;;
18159;SDS011;9205;52.032;4.314;2023-07-31T10:36:41;9.37;;;2.17;;
18159;SDS011;9205;52.032;4.314;2023-07-31T10:39:33;9.47;;;2.17;;
18159;SDS011;9205;52.032;4.314;2023-07-31T10:42:10;9.33;;;2.00;;
18159;SDS011;9205;52.032;4.314;2023-07-31T10:44:43;8.57;;;2.13;;
18159;SDS011;9205;52.032;4.314;2023-07-31T10:47:14;6.47;;;2.07;;
18159;SDS011;9205;52.032;4.314;2023-07-31T10:49:44;5.90;;;1.67;;
18159;SDS011;9205;52.032;4.314;2023-07-31T10:52:13;7.00;;;1.80;;
18159;SDS011;9205;52.032;4.314;2023-07-31T10:54:48;7.33;;;2.10;;
18159;SDS011;9205;52.032;4.314;2023-07-31T10:57:21;7.10;;;2.20;;
18159;SDS011;9205;52.032;4.314;2023-07-31T10:59:50;13.87;;;2.53;;
18159;SDS011;9205;52.032;4.314;2023-07-31T11:02:24;4.30;;;1.60;;
18159;SDS011;9205;52.032;4.314;2023-07-31T11:05:06;5.73;;;2.03;;
18159;SDS011;9205;52.032;4.314;2023-07-31T11:07:47;7.37;;;1.77;;
18159;SDS011;9205;52.032;4.314;2023-07-31T11:10:18;9.60;;;2.20;;
18159;SDS011;9205;52.032;4.314;2023-07-31T11:12:47;13.73;;;2.50;;
18159;SDS011;9205;52.032;4.314;2023-07-31T11:15:15;4.90;;;1.73;;
18159;SDS011;9205;52.032;4.314;2023-07-31T11:17:42;6.00;;;2.10;;
18159;SDS011;9205;52.032;4.314;2023-07-31T11:20:10;10.80;;;2.17;;
18159;SDS011;9205;52.032;4.314;2023-07-31T11:22:38;4.57;;;1.60;;
18159;SDS011;9205;52.032;4.314;2023-07-31T11:25:07;4.43;;;1.70;;
18159;SDS011;9205;52.032;4.314;2023-07-31T11:27:38;10.40;;;1.97;;
18159;SDS011;9205;52.032;4.314;2023-07-31T11:30:09;3.13;;;1.43;;
18159;SDS011;9205;52.032;4.314;2023-07-31T11:32:37;6.53;;;1.67;;
18159;SDS011;9205;52.032;4.314;2023-07-31T11:35:05;10.43;;;2.33;;
18159;SDS011;9205;52.032;4.314;2023-07-31T11:37:40;10.60;;;2.00;;
18159;SDS011;9205;52.032;4.314;2023-07-31T11:40:08;5.37;;;1.40;;
18159;SDS011;9205;52.032;4.314;2023-07-31T11:42:37;4.17;;;1.57;;
18159;SDS011;9205;52.032;4.314;2023-07-31T11:45:04;10.67;;;1.83;;
18159;SDS011;9205;52.032;4.314;2023-07-31T11:47:35;6.13;;;1.50;;
18159;SDS011;9205;52.032;4.314;2023-07-31T11:50:04;4.20;;;1.60;;
18159;SDS011;9205;52.032;4.314;2023-07-31T11:52:37;5.50;;;1.83;;
18159;SDS011;9205;52.032;4.314;2023-07-31T11:55:11;6.03;;;1.53;;
18159;SDS011;9205;52.032;4.314;2023-07-31T11:57:40;3.50;;;1.17;;
18159;SDS011;9205;52.032;4.314;2023-07-31T12:00:10;5.93;;;1.53;;
18159;SDS011;9205;52.032;4.314;2023-07-31T12:02:41;7.57;;;1.57;;
18159;SDS011;9205;52.032;4.314;2023-07-31T12:05:10;4.87;;;1.60;;
18159;SDS011;9205;52.032;4.314;2023-07-31T12:07:45;4.40;;;1.70;;
18159;SDS011;9205;52.032;4.314;2023-07-31T12:10:27;9.10;;;1.50;;
18159;SDS011;9205;52.032;4.314;2023-07-31T12:12:56;5.97;;;1.63;;
18159;SDS011;9205;52.032;4.314;2023-07-31T12:15:30;5.17;;;1.60;;
18159;SDS011;9205;52.032;4.314;2023-07-31T12:18:05;5.90;;;1.53;;
18159;SDS011;9205;52.032;4.314;2023-07-31T12:20:34;6.50;;;1.90;;
18159;SDS011;9205;52.032;4.314;2023-07-31T12:23:07;4.93;;;1.50;;
18159;SDS011;9205;52.032;4.314;2023-07-31T12:25:39;6.60;;;1.77;;
18159;SDS011;9205;52.032;4.314;2023-07-31T12:28:06;4.27;;;1.70;;
18159;SDS011;9205;52.032;4.314;2023-07-31T12:30:37;6.03;;;1.50;;
18159;SDS011;9205;52.032;4.314;2023-07-31T12:33:13;7.50;;;1.60;;
18159;SDS011;9205;52.032;4.314;2023-07-31T12:35:42;7.50;;;1.60;;
18159;SDS011;9205;52.032;4.314;2023-07-31T12:38:11;4.33;;;1.43;;
18159;SDS011;9205;52.032;4.314;2023-07-31T12:40:39;4.83;;;1.63;;
18159;SDS011;9205;52.032;4.314;2023-07-31T12:43:08;6.03;;;1.50;;
18159;SDS011;9205;52.032;4.314;2023-07-31T12:45:35;4.70;;;1.30;;
18159;SDS011;9205;52.032;4.314;2023-07-31T12:48:03;3.27;;;1.23;;
18159;SDS011;9205;52.032;4.314;2023-07-31T12:50:32;4.70;;;1.30;;
18159;SDS011;9205;52.032;4.314;2023-07-31T12:53:01;2.37;;;1.20;;
18159;SDS011;9205;52.032;4.314;2023-07-31T12:55:29;4.50;;;1.30;;
18159;SDS011;9205;52.032;4.314;2023-07-31T12:57:56;8.47;;;1.63;;
18159;SDS011;9205;52.032;4.314;2023-07-31T13:00:24;1.93;;;1.40;;
18159;SDS011;9205;52.032;4.314;2023-07-31T13:02:51;3.83;;;1.50;;
18159;SDS011;9205;52.032;4.314;2023-07-31T13:05:19;1.60;;;1.10;;
18159;SDS011;9205;52.032;4.314;2023-07-31T13:07:47;4.67;;;1.33;;
18159;SDS011;9205;52.032;4.314;2023-07-31T13:10:15;5.10;;;1.43;;
18159;SDS011;9205;52.032;4.314;2023-07-31T13:12:42;4.10;;;1.63;;
18159;SDS011;9205;52.032;4.314;2023-07-31T13:15:10;4.33;;;1.50;;
18159;SDS011;9205;52.032;4.314;2023-07-31T13:17:38;3.93;;;1.50;;
18159;SDS011;9205;52.032;4.314;2023-07-31T13:20:06;1.80;;;1.30;;
18159;SDS011;9205;52.032;4.314;2023-07-31T13:22:34;2.53;;;1.43;;
18159;SDS011;9205;52.032;4.314;2023-07-31T13:25:03;1.90;;;1.20;;
18159;SDS011;9205;52.032;4.314;2023-07-31T13:27:32;6.43;;;1.50;;
18159;SDS011;9205;52.032;4.314;2023-07-31T13:30:00;5.10;;;1.63;;
18159;SDS011;9205;52.032;4.314;2023-07-31T13:32:27;7.57;;;1.50;;
18159;SDS011;9205;52.032;4.314;2023-07-31T13:34:55;4.03;;;1.40;;
18159;SDS011;9205;52.032;4.314;2023-07-31T13:37:23;4.00;;;1.40;;
18159;SDS011;9205;52.032;4.314;2023-07-31T13:39:50;2.97;;;1.17;;
18159;SDS011;9205;52.032;4.314;2023-07-31T13:42:19;3.53;;;1.20;;
18159;SDS011;9205;52.032;4.314;2023-07-31T13:44:47;4.20;;;1.40;;
18159;SDS011;9205;52.032;4.314;2023-07-31T13:47:14;1.97;;;1.10;;
18159;SDS011;9205;52.032;4.314;2023-07-31T13:49:42;5.20;;;1.30;;
18159;SDS011;9205;52.032;4.314;2023-07-31T13:52:09;2.30;;;1.10;;
18159;SDS011;9205;52.032;4.314;2023-07-31T13:54:36;2.53;;;1.10;;
18159;SDS011;9205;52.032;4.314;2023-07-31T13:57:04;1.27;;;0.93;;
18159;SDS011;9205;52.032;4.314;2023-07-31T13:59:33;2.30;;;0.80;;
18159;SDS011;9205;52.032;4.314;2023-07-31T14:02:01;1.13;;;0.80;;
18159;SDS011;9205;52.032;4.314;2023-07-31T14:04:29;1.80;;;0.90;;
18159;SDS011;9205;52.032;4.314;2023-07-31T14:06:57;1.57;;;0.87;;
18159;SDS011;9205;52.032;4.314;2023-07-31T14:09:24;2.67;;;0.90;;
18159;SDS011;9205;52.032;4.314;2023-07-31T14:11:53;1.53;;;1.10;;
18159;SDS011;9205;52.032;4.314;2023-07-31T14:14:20;1.27;;;0.90;;
18159;SDS011;9205;52.032;4.314;2023-07-31T14:16:49;1.10;;;0.80;;
18159;SDS011;9205;52.032;4.314;2023-07-31T14:19:16;0.93;;;0.83;;
18159;SDS011;9205;52.032;4.314;2023-07-31T14:21:43;1.07;;;0.80;;
18159;SDS011;9205;52.032;4.314;2023-07-31T14:24:10;2.80;;;0.83;;
18159;SDS011;9205;52.032;4.314;2023-07-31T14:26:38;2.30;;;0.90;;
18159;SDS011;9205;52.032;4.314;2023-07-31T14:29:05;1.13;;;0.80;;
18159;SDS011;9205;52.032;4.314;2023-07-31T14:31:32;2.30;;;0.80;;
18159;SDS011;9205;52.032;4.314;2023-07-31T14:34:01;1.43;;;0.90;;
18159;SDS011;9205;52.032;4.314;2023-07-31T14:36:29;3.87;;;1.00;;
18159;SDS011;9205;52.032;4.314;2023-07-31T14:38:56;2.33;;;0.97;;
18159;SDS011;9205;52.032;4.314;2023-07-31T14:41:23;1.63;;;0.83;;
18159;SDS011;9205;52.032;4.314;2023-07-31T14:43:50;2.60;;;0.70;;
18159;SDS011;9205;52.032;4.314;2023-07-31T14:46:18;2.93;;;0.70;;
18159;SDS011;9205;52.032;4.314;2023-07-31T14:48:45;2.10;;;0.77;;
18159;SDS011;9205;52.032;4.314;2023-07-31T14:51:14;1.57;;;0.77;;
18159;SDS011;9205;52.032;4.314;2023-07-31T14:53:42;1.60;;;0.70;;
18159;SDS011;9205;52.032;4.314;2023-07-31T14:56:12;2.77;;;0.70;;
18159;SDS011;9205;52.032;4.314;2023-07-31T14:58:39;1.17;;;0.80;;
18159;SDS011;9205;52.032;4.314;2023-07-31T15:01:06;1.33;;;0.70;;
18159;SDS011;9205;52.032;4.314;2023-07-31T15:03:33;2.00;;;0.70;;
18159;SDS011;9205;52.032;4.314;2023-07-31T15:06:01;0.70;;;0.70;;